Time;durP1;ratioP1;P1;durP2;ratioP2;P2;SDS_P1;SDS_P2;PMS_P1;PMS_P2;Temp;Humidity;BMP_temperature;BMP_pressure;BME280_temperature;BME280_humidity;BME280_pressure;Samples;Min_cycle;Max_cycle;Signal;HPM_P1;HPM_P2
2024/04/18 00:00:31;;;;;;;2.47;1.23;;;3.80;20.80;;;;;;5334403;26;20274;-69
2024/04/18 00:02:56;;;;;;;3.45;1.60;;;3.70;22.10;;;;;;5336233;26;20242;-69
2024/04/18 00:05:22;;;;;;;2.20;1.13;;;3.70;23.20;;;;;;5334334;26;20231;-69
2024/04/18 00:07:47;;;;;;;2.13;1.03;;;3.70;22.50;;;;;;5334819;26;20648;-70
2024/04/18 00:10:14;;;;;;;2.07;1.27;;;3.70;22.70;;;;;;5336271;26;20219;-69
2024/04/18 00:12:40;;;;;;;2.35;0.98;;;3.60;23.40;;;;;;5335932;26;20240;-68
2024/04/18 00:15:09;;;;;;;2.20;1.23;;;3.60;23.40;;;;;;5335625;26;20222;-68
2024/04/18 00:17:35;;;;;;;2.42;1.40;;;3.60;23.70;;;;;;5335162;26;20224;-69
2024/04/18 00:20:02;;;;;;;2.35;1.35;;;3.50;24.20;;;;;;5335165;26;20222;-70
2024/04/18 00:22:27;;;;;;;2.00;0.95;;;3.50;24.60;;;;;;5335649;26;20277;-69
2024/04/18 00:24:53;;;;;;;3.20;1.63;;;3.50;25.40;;;;;;5335188;26;20221;-69
2024/04/18 00:27:18;;;;;;;2.80;1.50;;;3.50;26.30;;;;;;5335403;26;20229;-69
2024/04/18 00:29:45;;;;;;;2.70;1.60;;;3.50;26.60;;;;;;5333807;26;20225;-68
2024/04/18 00:32:11;;;;;;;2.83;1.17;;;3.40;27.30;;;;;;5333523;26;20714;-69
2024/04/18 00:34:36;;;;;;;3.83;1.07;;;3.40;28.90;;;;;;5335243;26;20268;-68
2024/04/18 00:37:02;;;;;;;1.97;0.90;;;3.40;28.30;;;;;;5335440;26;20268;-69
2024/04/18 00:39:27;;;;;;;2.50;1.17;;;3.40;28.00;;;;;;5335601;26;20270;-69
2024/04/18 00:41:53;;;;;;;2.20;1.00;;;3.30;29.10;;;;;;5333254;26;20226;-69
2024/04/18 00:44:21;;;;;;;2.53;1.00;;;3.30;28.80;;;;;;5334905;26;20720;-69
2024/04/18 00:46:48;;;;;;;6.18;1.27;;;3.30;28.30;;;;;;5335165;26;20219;-69
2024/04/18 00:49:14;;;;;;;1.90;0.80;;;3.40;27.90;;;;;;5335226;26;20219;-69
2024/04/18 00:51:39;;;;;;;2.63;1.03;;;3.40;27.50;;;;;;5335374;26;20268;-68
2024/04/18 00:54:05;;;;;;;2.23;1.27;;;3.50;27.00;;;;;;5334907;26;20265;-68
2024/04/18 00:56:31;;;;;;;2.60;1.75;;;3.50;26.80;;;;;;5335241;26;20322;-68
2024/04/18 00:58:57;;;;;;;3.13;1.50;;;3.60;26.60;;;;;;5333431;26;20223;-68
2024/04/18 01:01:25;;;;;;;1.80;1.00;;;3.60;25.20;;;;;;5337340;26;20612;-68
2024/04/18 01:03:51;;;;;;;3.17;1.10;;;3.50;24.80;;;;;;5337962;26;20295;-69
2024/04/18 01:06:16;;;;;;;2.37;1.17;;;3.50;25.20;;;;;;5337200;26;20243;-69
2024/04/18 01:08:42;;;;;;;1.83;1.00;;;3.40;25.20;;;;;;5340407;26;20289;-68
2024/04/18 01:11:07;;;;;;;2.23;1.10;;;3.40;26.10;;;;;;5339369;26;20672;-69
2024/04/18 01:13:39;;;;;;;2.23;1.20;;;3.40;26.50;;;;;;5336854;26;20245;-69
2024/04/18 01:16:05;;;;;;;1.73;0.80;;;3.40;25.50;;;;;;5339273;26;20309;-69
2024/04/18 01:18:31;;;;;;;2.80;2.00;;;3.40;25.80;;;;;;5340148;26;20309;-69
2024/04/18 01:20:57;;;;;;;2.35;1.10;;;3.40;25.00;;;;;;5336622;26;20736;-68
2024/04/18 01:23:25;;;;;;;1.97;1.00;;;3.40;24.40;;;;;;5335288;26;20275;-68
2024/04/18 01:25:51;;;;;;;1.85;0.95;;;3.40;26.30;;;;;;5335420;26;20231;-68
2024/04/18 01:28:17;;;;;;;2.10;1.10;;;3.40;25.40;;;;;;5335232;26;20227;-68
2024/04/18 01:30:42;;;;;;;2.50;1.33;;;3.40;26.00;;;;;;5337523;26;20290;-68
2024/04/18 01:33:08;;;;;;;1.90;0.70;;;3.40;26.10;;;;;;5336665;26;20281;-70
2024/04/18 01:35:33;;;;;;;1.60;0.70;;;3.40;27.30;;;;;;5336675;26;20230;-71
2024/04/18 01:37:59;;;;;;;2.07;0.93;;;3.40;26.30;;;;;;5339035;26;20270;-70
2024/04/18 01:40:24;;;;;;;1.90;1.00;;;3.40;26.40;;;;;;5338796;26;20226;-69
2024/04/18 01:42:50;;;;;;;2.57;1.20;;;3.40;26.30;;;;;;5351749;21;20300;-69
2024/04/18 01:45:16;;;;;;;2.00;1.00;;;3.40;26.00;;;;;;5335036;26;20220;-70
2024/04/18 01:47:41;;;;;;;2.17;1.03;;;3.30;26.80;;;;;;5335719;26;20264;-70
2024/04/18 01:50:08;;;;;;;2.30;1.17;;;3.20;27.70;;;;;;5335745;26;20959;-71
2024/04/18 01:52:34;;;;;;;2.30;1.30;;;3.30;27.30;;;;;;5335828;26;20279;-69
2024/04/18 01:54:59;;;;;;;2.33;1.40;;;3.30;27.60;;;;;;5335630;26;20275;-70
2024/04/18 01:57:25;;;;;;;2.00;1.07;;;3.30;27.80;;;;;;5333908;26;20685;-69
2024/04/18 01:59:51;;;;;;;2.15;1.40;;;3.30;27.70;;;;;;5335693;26;20218;-69
2024/04/18 02:02:18;;;;;;;2.00;1.07;;;3.30;27.70;;;;;;5335966;26;20218;-69
2024/04/18 02:04:43;;;;;;;2.63;1.60;;;3.20;27.20;;;;;;5335395;26;20328;-70
2024/04/18 02:07:09;;;;;;;2.40;1.10;;;3.20;28.10;;;;;;5335785;26;20312;-70
2024/04/18 02:09:34;;;;;;;2.60;1.07;;;3.30;28.90;;;;;;5335764;26;20215;-69
2024/04/18 02:12:00;;;;;;;2.60;1.33;;;3.30;29.60;;;;;;5335477;26;20332;-69
2024/04/18 02:14:25;;;;;;;2.60;1.40;;;3.40;30.20;;;;;;5335142;26;20724;-70
2024/04/18 02:16:51;;;;;;;2.17;1.33;;;3.40;29.10;;;;;;5336573;26;20218;-70
2024/04/18 02:19:16;;;;;;;2.63;1.57;;;3.30;29.30;;;;;;5336829;26;20262;-69
2024/04/18 02:21:42;;;;;;;2.10;0.90;;;3.40;29.50;;;;;;5333847;26;20258;-69
2024/04/18 02:24:08;;;;;;;3.03;1.47;;;3.30;29.60;;;;;;5334613;26;20711;-70
2024/04/18 02:29:56;;;;;;;3.60;1.80;;;3.40;29.60;;;;;;5334593;26;20262;-70
2024/04/18 02:32:21;;;;;;;3.20;1.83;;;3.50;30.60;;;;;;5333310;26;20373;-70
2024/04/18 02:34:47;;;;;;;3.07;1.47;;;3.50;30.00;;;;;;5333028;26;20234;-70
2024/04/18 02:37:12;;;;;;;2.13;1.07;;;3.50;29.10;;;;;;5335291;26;20750;-70
2024/04/18 02:39:39;;;;;;;1.90;1.00;;;3.50;28.90;;;;;;5335205;26;20229;-70
2024/04/18 02:42:08;;;;;;;2.38;1.40;;;3.50;29.10;;;;;;5334206;26;20223;-70
2024/04/18 02:44:34;;;;;;;2.83;1.77;;;3.60;28.00;;;;;;5332960;26;20259;-70
2024/04/18 02:46:59;;;;;;;2.50;1.30;;;3.60;27.40;;;;;;5335159;26;20391;-69
2024/04/18 02:49:25;;;;;;;2.40;1.40;;;3.70;27.50;;;;;;5335523;26;20227;-69
2024/04/18 02:51:50;;;;;;;1.97;0.80;;;3.60;27.40;;;;;;5335078;26;20275;-69
2024/04/18 02:54:18;;;;;;;4.47;1.83;;;3.60;27.50;;;;;;5332653;26;20240;-69
2024/04/18 02:56:44;;;;;;;3.70;1.80;;;3.60;27.40;;;;;;5333123;26;20236;-68
2024/04/18 02:59:10;;;;;;;2.23;1.43;;;3.40;26.50;;;;;;5334602;26;20646;-69
2024/04/18 03:01:36;;;;;;;2.00;1.20;;;3.50;27.90;;;;;;5334523;26;20608;-68
2024/04/18 03:04:01;;;;;;;2.90;1.77;;;3.50;27.60;;;;;;5334961;26;20330;-69
2024/04/18 03:06:29;;;;;;;4.87;1.77;;;3.50;28.80;;;;;;5332836;26;20285;-70
2024/04/18 03:08:55;;;;;;;6.50;2.65;;;3.50;29.80;;;;;;5335023;26;20298;-68
2024/04/18 03:11:20;;;;;;;3.13;1.90;;;3.60;29.40;;;;;;5334797;26;20701;-70
2024/04/18 03:13:46;;;;;;;3.00;1.90;;;3.70;28.90;;;;;;5334395;26;20259;-69
2024/04/18 03:16:14;;;;;;;2.40;1.55;;;3.60;27.00;;;;;;5334246;26;20233;-69
2024/04/18 03:18:41;;;;;;;3.30;2.20;;;3.50;27.40;;;;;;5334337;26;20222;-68
2024/04/18 03:21:06;;;;;;;4.07;2.28;;;3.50;27.10;;;;;;5336600;26;20230;-69
2024/04/18 03:23:32;;;;;;;3.47;1.93;;;3.60;27.40;;;;;;5342521;26;20341;-70
2024/04/18 03:25:57;;;;;;;3.30;1.67;;;3.60;25.90;;;;;;5341695;26;20219;-70
2024/04/18 03:28:23;;;;;;;2.70;2.00;;;3.60;25.80;;;;;;5340933;26;20223;-71
2024/04/18 03:30:48;;;;;;;2.33;1.40;;;3.60;26.10;;;;;;5335665;26;20222;-69
2024/04/18 03:33:14;;;;;;;3.67;1.97;;;3.50;25.20;;;;;;5336328;26;20235;-70
2024/04/18 03:35:40;;;;;;;3.27;1.80;;;3.40;25.40;;;;;;5333888;26;20331;-70
2024/04/18 03:38:05;;;;;;;3.53;1.90;;;3.40;26.20;;;;;;5332510;26;20234;-70
2024/04/18 03:40:31;;;;;;;3.47;1.87;;;3.40;26.20;;;;;;5332473;26;20234;-70
2024/04/18 03:42:57;;;;;;;4.55;1.90;;;3.30;26.00;;;;;;5334221;26;20891;-70
2024/04/18 03:45:23;;;;;;;2.27;1.50;;;3.20;25.60;;;;;;5333920;26;20264;-71
2024/04/18 03:47:52;;;;;;;3.73;2.13;;;3.10;25.90;;;;;;5332658;26;20234;-70
2024/04/18 03:50:19;;;;;;;3.60;2.08;;;3.10;27.10;;;;;;5334433;26;20222;-69
2024/04/18 03:52:45;;;;;;;3.85;2.30;;;3.10;28.00;;;;;;5333806;26;20736;-69
2024/04/18 03:55:11;;;;;;;5.70;2.28;;;3.10;28.50;;;;;;5333654;26;20272;-70
2024/04/18 03:57:36;;;;;;;2.57;1.50;;;3.10;28.50;;;;;;5332190;26;20253;-70
2024/04/18 04:00:03;;;;;;;2.80;1.63;;;3.00;29.70;;;;;;5334044;26;20227;-69
2024/04/18 04:02:32;;;;;;;2.92;1.67;;;3.10;30.20;;;;;;5332804;26;20344;-69
2024/04/18 04:04:57;;;;;;;2.80;1.88;;;3.10;30.20;;;;;;5331695;26;20234;-70
2024/04/18 04:07:23;;;;;;;3.03;2.07;;;3.00;30.50;;;;;;5332031;26;20230;-70
2024/04/18 04:09:49;;;;;;;3.27;2.37;;;3.10;32.00;;;;;;5333784;26;20270;-69
2024/04/18 04:12:14;;;;;;;3.50;2.30;;;3.10;31.40;;;;;;5331769;26;20233;-69
2024/04/18 04:14:40;;;;;;;3.40;2.60;;;3.10;30.00;;;;;;5333293;26;20226;-69
2024/04/18 04:17:06;;;;;;;3.10;2.20;;;3.10;31.40;;;;;;5332489;26;20235;-69
2024/04/18 04:19:31;;;;;;;3.60;2.23;;;3.10;29.90;;;;;;5334330;26;20224;-70
2024/04/18 04:21:57;;;;;;;3.47;2.40;;;3.10;30.20;;;;;;5333737;26;20230;-69
2024/04/18 04:24:22;;;;;;;3.30;2.63;;;3.10;31.40;;;;;;5333339;26;20260;-69
2024/04/18 04:26:48;;;;;;;3.20;1.80;;;3.10;30.60;;;;;;5333613;26;20222;-69
2024/04/18 04:29:14;;;;;;;5.07;3.22;;;3.20;30.00;;;;;;5333123;26;20297;-69
2024/04/18 04:31:40;;;;;;;3.13;2.35;;;3.20;29.50;;;;;;5335327;26;20270;-68
2024/04/18 04:34:07;;;;;;;3.10;2.30;;;3.10;30.00;;;;;;5334566;26;20544;-68
2024/04/18 04:36:34;;;;;;;4.05;2.60;;;3.20;29.70;;;;;;5335381;26;20321;-68
2024/04/18 04:38:59;;;;;;;5.82;3.30;;;3.30;29.30;;;;;;5334383;26;20223;-69
2024/04/18 04:41:26;;;;;;;4.33;2.87;;;3.20;29.10;;;;;;5333171;26;20232;-68
2024/04/18 04:43:52;;;;;;;3.85;2.85;;;3.30;29.80;;;;;;5332330;26;20275;-68
2024/04/18 04:46:17;;;;;;;2.85;2.13;;;3.30;29.90;;;;;;5332575;26;20242;-68
2024/04/18 04:48:43;;;;;;;3.50;2.30;;;3.30;30.10;;;;;;5330781;26;20336;-69
2024/04/18 04:51:09;;;;;;;3.00;2.23;;;3.40;31.30;;;;;;5330691;26;20226;-69
2024/04/18 04:53:34;;;;;;;3.73;2.77;;;3.40;30.30;;;;;;5331936;26;20267;-68
2024/04/18 04:56:00;;;;;;;5.00;4.43;;;3.40;30.40;;;;;;5331966;26;20714;-68
2024/04/18 04:58:26;;;;;;;5.90;3.97;;;3.40;28.90;;;;;;5332570;26;20218;-68
2024/04/18 05:00:53;;;;;;;4.10;2.50;;;3.40;29.20;;;;;;5330390;26;20232;-69
2024/04/18 05:03:19;;;;;;;2.90;2.28;;;3.50;29.80;;;;;;5332338;26;20246;-69
2024/04/18 05:05:45;;;;;;;4.00;2.00;;;3.50;29.60;;;;;;5334499;26;20247;-69
2024/04/18 05:08:10;;;;;;;5.13;2.73;;;3.60;29.10;;;;;;5335547;26;20222;-69
2024/04/18 05:10:43;;;;;;;4.10;2.30;;;3.60;28.30;;;;;;5333336;26;20268;-67
2024/04/18 05:13:13;;;;;;;4.93;2.75;;;3.60;27.40;;;;;;5335070;26;20241;-68
2024/04/18 05:15:39;;;;;;;10.25;2.95;;;3.70;27.50;;;;;;5335000;26;20266;-70
2024/04/18 05:18:06;;;;;;;3.50;2.60;;;3.70;27.50;;;;;;5335387;26;20228;-69
2024/04/18 05:20:31;;;;;;;6.13;2.58;;;3.70;28.50;;;;;;5333461;26;20326;-69
2024/04/18 05:22:57;;;;;;;4.97;2.57;;;3.80;28.30;;;;;;5333306;26;20252;-69
2024/04/18 05:25:23;;;;;;;3.03;1.73;;;3.90;27.60;;;;;;5332862;26;20235;-71
2024/04/18 05:28:03;;;;;;;4.87;2.90;;;3.90;27.60;;;;;;5335453;26;20230;-68
2024/04/18 05:33:15;;;;;;;3.30;2.55;;;4.10;26.80;;;;;;5335092;26;20281;-68
2024/04/18 05:35:41;;;;;;;3.75;2.10;;;4.20;24.50;;;;;;5334923;26;20297;-69
2024/04/18 05:38:06;;;;;;;4.13;2.43;;;4.10;23.70;;;;;;5333032;26;20233;-68
2024/04/18 05:40:32;;;;;;;7.30;3.60;;;4.20;24.10;;;;;;5333156;26;20713;-68
2024/04/18 05:42:57;;;;;;;4.90;3.20;;;4.30;23.80;;;;;;5335129;26;20236;-69
2024/04/18 05:45:23;;;;;;;6.50;3.77;;;4.30;23.90;;;;;;5334471;26;20274;-70
2024/04/18 05:47:48;;;;;;;4.47;3.67;;;4.20;24.80;;;;;;5335001;26;20356;-69
2024/04/18 05:50:14;;;;;;;4.50;3.50;;;4.20;25.60;;;;;;5333402;26;20243;-69
2024/04/18 05:52:39;;;;;;;6.63;3.53;;;4.30;25.90;;;;;;5335517;26;20251;-69
2024/04/18 05:55:05;;;;;;;7.47;3.63;;;4.30;24.80;;;;;;5334738;26;20286;-70
2024/04/18 05:57:31;;;;;;;4.60;2.83;;;4.30;25.50;;;;;;5333395;26;20263;-70
2024/04/18 05:59:56;;;;;;;5.20;3.73;;;4.50;24.40;;;;;;5334863;26;20269;-69
2024/04/18 06:02:22;;;;;;;4.17;2.70;;;4.50;23.60;;;;;;5333389;26;20727;-68
2024/04/18 06:04:48;;;;;;;3.70;2.80;;;4.60;22.20;;;;;;5334864;26;20229;-69
2024/04/18 06:07:13;;;;;;;4.80;2.93;;;4.60;21.00;;;;;;5335285;26;20228;-70
2024/04/18 06:09:39;;;;;;;4.33;3.37;;;4.60;21.80;;;;;;5333626;26;20749;-69
2024/04/18 06:12:05;;;;;;;4.70;3.63;;;4.70;22.20;;;;;;5335237;26;20225;-70
2024/04/18 06:14:30;;;;;;;5.70;3.83;;;4.80;23.10;;;;;;5333278;26;20293;-70
2024/04/18 06:16:56;;;;;;;3.83;3.43;;;4.90;21.60;;;;;;5333986;26;20769;-69
2024/04/18 06:19:21;;;;;;;4.73;3.27;;;5.10;19.70;;;;;;5335143;26;20710;-72
2024/04/18 06:21:47;;;;;;;4.80;3.50;;;5.10;19.20;;;;;;5335085;26;20221;-69
2024/04/18 06:24:16;;;;;;;5.43;3.10;;;5.20;20.30;;;;;;5332874;26;20252;-69
2024/04/18 06:26:41;;;;;;;8.27;4.57;;;5.40;19.20;;;;;;5332853;26;20230;-68
2024/04/18 06:29:07;;;;;;;5.90;4.70;;;5.50;17.50;;;;;;5332918;26;20524;-69
2024/04/18 06:31:32;;;;;;;5.80;4.37;;;5.50;17.10;;;;;;5334349;26;20234;-69
2024/04/18 06:33:58;;;;;;;5.87;4.00;;;5.40;16.70;;;;;;5335822;26;20264;-69
2024/04/18 06:36:24;;;;;;;5.00;3.97;;;5.30;16.30;;;;;;5334592;26;20332;-68
2024/04/18 06:38:49;;;;;;;4.33;3.70;;;5.20;17.90;;;;;;5332449;26;20342;-68
2024/04/18 06:41:15;;;;;;;4.43;3.53;;;5.10;19.30;;;;;;5334075;26;20224;-68
2024/04/18 06:43:40;;;;;;;5.70;4.87;;;5.50;20.40;;;;;;5333981;26;20732;-69
2024/04/18 06:46:06;;;;;;;4.80;4.30;;;5.80;16.80;;;;;;5333813;26;20666;-68
2024/04/18 06:48:32;;;;;;;6.00;4.47;;;6.10;15.50;;;;;;5335882;26;20635;-68
2024/04/18 06:50:57;;;;;;;5.20;3.60;;;6.40;14.00;;;;;;5332450;26;20256;-68
2024/04/18 06:53:23;;;;;;;5.40;3.93;;;6.70;10.10;;;;;;5332239;26;20253;-68
2024/04/18 06:55:49;;;;;;;5.43;3.50;;;6.80;6.10;;;;;;5334175;26;20268;-69
2024/04/18 06:58:15;;;;;;;3.90;2.73;;;6.90;3.20;;;;;;5334129;26;20230;-68
2024/04/18 07:00:41;;;;;;;6.43;4.23;;;6.80;3.40;;;;;;5332412;26;20906;-69
2024/04/18 07:03:11;;;;;;;9.73;4.10;;;6.90;4.50;;;;;;5334465;26;20246;-69
2024/04/18 07:05:36;;;;;;;5.80;3.40;;;6.90;4.00;;;;;;5334033;26;20461;-70
2024/04/18 07:08:02;;;;;;;5.67;3.20;;;7.00;4.00;;;;;;5334549;26;20456;-68
2024/04/18 07:10:27;;;;;;;6.40;3.83;;;6.90;2.00;;;;;;5334357;26;20748;-68
2024/04/18 07:12:53;;;;;;;5.23;4.00;;;6.60;3.80;;;;;;5334559;26;20319;-68
2024/04/18 07:15:18;;;;;;;5.63;4.40;;;6.60;6.40;;;;;;5334562;26;20237;-69
2024/04/18 07:17:44;;;;;;;4.10;2.70;;;7.00;6.80;;;;;;5334570;26;20355;-70
2024/04/18 07:20:10;;;;;;;5.10;3.57;;;7.20;2.00;;;;;;5334884;26;20324;-68
2024/04/18 07:22:37;;;;;;;3.87;3.17;;;7.20;1.00;;;;;;5334134;26;20242;-69
2024/04/18 07:25:04;;;;;;;5.63;3.77;;;7.10;1.10;;;;;;5334611;26;20409;-70
2024/04/18 07:27:30;;;;;;;4.03;3.07;;;7.00;2.50;;;;;;5333439;26;20461;-69
2024/04/18 07:29:55;;;;;;;4.73;3.60;;;6.90;2.80;;;;;;5332259;26;20461;-70
2024/04/18 07:32:21;;;;;;;4.70;3.67;;;7.00;2.80;;;;;;5335554;26;20692;-70
2024/04/18 07:34:47;;;;;;;4.60;3.43;;;7.20;3.90;;;;;;5336977;26;20349;-70
2024/04/18 07:37:13;;;;;;;4.40;3.57;;;7.20;1.00;;;;;;5338011;26;20461;-69
2024/04/18 07:39:39;;;;;;;5.97;3.63;;;7.30;1.00;;;;;;5335078;26;20230;-70
2024/04/18 07:42:05;;;;;;;6.27;4.43;;;7.60;1.10;;;;;;5335264;26;20635;-70
2024/04/18 07:44:31;;;;;;;4.53;3.60;;;7.80;1.00;;;;;;5367917;21;20458;-70
2024/04/18 07:46:57;;;;;;;4.63;3.90;;;8.10;1.00;;;;;;5355652;26;20453;-71
2024/04/18 07:49:22;;;;;;;4.50;3.13;;;8.10;1.00;;;;;;5345987;26;20220;-71
2024/04/18 07:51:48;;;;;;;4.50;3.73;;;8.40;1.00;;;;;;5338111;26;20453;-72
2024/04/18 07:54:14;;;;;;;4.07;2.80;;;8.50;1.00;;;;;;5334626;26;20711;-71
2024/04/18 07:56:40;;;;;;;4.50;4.00;;;8.80;1.00;;;;;;5336434;26;20270;-71
2024/04/18 07:59:06;;;;;;;3.83;3.43;;;8.90;1.00;;;;;;5335960;26;20450;-72
2024/04/18 08:01:31;;;;;;;4.50;3.17;;;9.00;1.00;;;;;;5334011;26;20257;-74
2024/04/18 08:03:57;;;;;;;3.80;3.40;;;8.60;1.00;;;;;;5335409;26;20326;-74
2024/04/18 08:06:23;;;;;;;8.57;4.50;;;8.40;1.00;;;;;;5335761;26;20235;-72
2024/04/18 08:08:48;;;;;;;6.27;4.03;;;8.50;1.00;;;;;;5334041;26;20258;-71
2024/04/18 08:11:14;;;;;;;6.10;4.17;;;8.60;1.00;;;;;;5362407;26;20232;-71
2024/04/18 08:13:39;;;;;;;4.87;4.37;;;8.80;1.00;;;;;;5335164;26;20226;-71
2024/04/18 08:16:05;;;;;;;4.27;3.43;;;8.70;1.00;;;;;;5335258;26;20332;-72
2024/04/18 08:18:31;;;;;;;5.47;3.80;;;8.30;1.00;;;;;;5335260;26;20223;-72
2024/04/18 08:20:56;;;;;;;3.17;2.37;;;8.10;1.00;;;;;;5364295;26;20517;-71
2024/04/18 08:23:22;;;;;;;5.90;4.03;;;8.30;1.00;;;;;;5337192;26;20231;-71
2024/04/18 08:25:48;;;;;;;4.97;4.17;;;8.40;1.00;;;;;;5336975;26;20231;-71
2024/04/18 08:28:16;;;;;;;6.23;4.43;;;8.40;1.00;;;;;;5335487;26;20908;-71
2024/04/18 08:30:41;;;;;;;5.67;3.77;;;8.30;1.00;;;;;;5336117;26;20225;-72
2024/04/18 08:33:07;;;;;;;4.63;3.47;;;8.30;1.00;;;;;;5335272;26;20852;-71
2024/04/18 08:35:32;;;;;;;4.50;3.70;;;8.70;1.00;;;;;;5332994;26;20226;-71
2024/04/18 08:37:58;;;;;;;4.20;3.20;;;9.00;1.00;;;;;;5334968;26;20267;-71
2024/04/18 08:40:26;;;;;;;5.70;3.77;;;9.50;1.00;;;;;;5333781;26;20271;-71
2024/04/18 08:42:51;;;;;;;4.17;2.80;;;9.90;1.00;;;;;;5334555;26;20268;-71
2024/04/18 08:45:22;;;;;;;4.40;3.47;;;9.90;1.00;;;;;;5334488;26;20487;-71
2024/04/18 08:47:49;;;;;;;4.43;3.33;;;10.30;1.00;;;;;;5332892;26;20727;-72
2024/04/18 08:50:16;;;;;;;4.93;3.10;;;10.40;1.00;;;;;;5334380;26;20504;-72
2024/04/18 08:52:43;;;;;;;4.40;3.50;;;10.70;1.00;;;;;;5334425;26;21005;-72
2024/04/18 08:55:09;;;;;;;5.33;3.20;;;10.60;1.00;;;;;;5334171;26;20500;-72
2024/04/18 08:57:44;;;;;;;4.37;3.60;;;10.50;1.00;;;;;;5334600;26;20440;-72
2024/04/18 09:00:11;;;;;;;4.30;3.63;;;10.40;1.00;;;;;;5332487;26;20237;-72
2024/04/18 09:02:37;;;;;;;3.90;3.30;;;10.00;1.00;;;;;;5361547;26;20778;-72
2024/04/18 09:05:03;;;;;;;4.03;2.70;;;10.30;1.00;;;;;;5333745;26;20502;-72
2024/04/18 09:07:29;;;;;;;3.40;3.10;;;10.60;1.00;;;;;;5334118;26;20498;-72
2024/04/18 09:10:06;;;;;;;4.33;3.10;;;10.60;1.00;;;;;;5334254;26;20454;-72
2024/04/18 09:12:32;;;;;;;4.40;3.97;;;10.70;1.00;;;;;;5334323;26;20221;-72
2024/04/18 09:14:57;;;;;;;3.97;3.57;;;11.20;1.00;;;;;;5333892;26;20460;-72
2024/04/18 09:17:23;;;;;;;4.57;3.63;;;11.20;1.00;;;;;;5334430;26;20563;-72
2024/04/18 09:19:48;;;;;;;4.20;2.73;;;10.80;1.00;;;;;;5332510;26;20241;-72
2024/04/18 09:22:14;;;;;;;3.60;2.53;;;9.90;1.00;;;;;;5334232;26;20268;-72
2024/04/18 09:24:44;;;;;;;3.80;3.07;;;8.90;1.00;;;;;;5333538;26;20236;-72
2024/04/18 09:27:10;;;;;;;3.93;2.80;;;7.90;1.00;;;;;;5334081;26;20588;-71
2024/04/18 09:29:36;;;;;;;4.73;3.93;;;7.20;1.00;;;;;;5334186;26;20492;-72
2024/04/18 09:32:03;;;;;;;6.50;4.90;;;6.40;1.00;;;;;;5361225;26;20536;-72
2024/04/18 09:34:30;;;;;;;5.57;4.97;;;5.70;3.10;;;;;;5331622;26;20246;-72
2024/04/18 09:37:02;;;;;;;6.03;4.47;;;5.20;6.50;;;;;;5333973;26;20464;-72
2024/04/18 09:39:28;;;;;;;7.20;4.90;;;5.30;10.70;;;;;;5333787;26;20497;-72
2024/04/18 09:42:26;;;;;;;7.30;5.40;;;5.80;11.90;;;;;;5360984;26;20468;-73
2024/04/18 09:45:02;;;;;;;7.87;6.00;;;6.20;8.00;;;;;;5333145;26;20465;-72
2024/04/18 09:47:31;;;;;;;6.83;6.13;;;6.70;9.10;;;;;;5333563;26;20448;-72
2024/04/18 09:49:57;;;;;;;6.40;4.83;;;6.80;7.60;;;;;;5333707;26;20468;-72
2024/04/18 09:52:24;;;;;;;6.60;5.83;;;6.90;7.20;;;;;;5336876;26;20793;-72
2024/04/18 09:54:51;;;;;;;9.07;6.10;;;7.00;5.70;;;;;;5334567;26;20532;-71
2024/04/18 09:57:18;;;;;;;6.90;6.03;;;7.40;5.50;;;;;;5336903;26;21059;-72
2024/04/18 09:59:45;;;;;;;6.23;5.33;;;7.60;4.10;;;;;;5336837;26;20979;-72
2024/04/18 10:02:12;;;;;;;7.03;6.33;;;;;;;;;;5336901;26;20508;-72
2024/04/18 10:04:42;;;;;;;6.70;6.10;;;8.10;4.60;;;;;;5363708;26;21051;-72
2024/04/18 10:07:10;;;;;;;6.13;5.40;;;8.60;1.00;;;;;;5336968;26;20466;-72
2024/04/18 10:09:38;;;;;;;6.13;5.10;;;8.60;1.00;;;;;;5335144;26;20461;-73
2024/04/18 10:12:06;;;;;;;6.47;5.30;;;8.50;1.00;;;;;;5335041;26;20523;-71
2024/04/18 10:14:31;;;;;;;4.90;4.37;;;8.90;1.00;;;;;;5336371;26;20555;-72
2024/04/18 10:16:57;;;;;;;7.13;6.50;;;9.00;1.00;;;;;;5336979;26;20458;-71
2024/04/18 10:19:28;;;;;;;6.50;5.20;;;9.20;1.00;;;;;;5363959;26;20251;-72
2024/04/18 10:21:57;;;;;;;6.83;5.60;;;8.80;1.00;;;;;;5336659;26;20228;-71
2024/04/18 10:24:35;;;;;;;6.50;5.20;;;8.40;1.00;;;;;;5335923;26;20521;-71
2024/04/18 10:27:09;;;;;;;5.73;5.13;;;8.70;1.00;;;;;;5363937;26;20512;-72
2024/04/18 10:29:34;;;;;;;7.53;5.90;;;8.90;1.00;;;;;;5336438;26;20529;-71
2024/04/18 10:32:03;;;;;;;8.03;7.20;;;8.90;1.00;;;;;;5336148;26;20450;-71
2024/04/18 10:34:30;;;;;;;7.40;5.50;;;8.80;1.00;;;;;;5336386;26;20287;-72
2024/04/18 10:37:06;;;;;;;5.87;5.27;;;9.00;1.00;;;;;;5334822;26;20576;-71
2024/04/18 10:39:35;;;;;;;7.17;6.20;;;9.10;1.00;;;;;;5334530;26;20475;-72
2024/04/18 10:42:02;;;;;;;8.67;5.80;;;8.90;1.00;;;;;;5336072;26;20514;-72
2024/04/18 10:44:28;;;;;;;8.83;6.13;;;8.80;1.00;;;;;;5335651;26;20527;-72
2024/04/18 10:46:54;;;;;;;8.23;6.77;;;9.20;1.00;;;;;;5335962;26;20450;-73
2024/04/18 10:49:21;;;;;;;4.77;4.17;;;9.40;1.00;;;;;;5363346;26;20232;-72
2024/04/18 10:51:49;;;;;;;6.77;6.07;;;9.80;1.00;;;;;;5334152;26;20467;-72
2024/04/18 10:54:14;;;;;;;6.93;6.23;;;9.80;1.00;;;;;;5335494;26;20585;-72
2024/04/18 10:56:40;;;;;;;7.30;6.27;;;10.10;1.00;;;;;;5363163;26;20989;-71
2024/04/18 10:59:09;;;;;;;5.73;4.37;;;10.50;1.00;;;;;;5335920;26;20290;-72
2024/04/18 11:01:38;;;;;;;5.00;4.20;;;10.40;1.00;;;;;;5335747;26;20225;-72
2024/04/18 11:04:04;;;;;;;6.00;4.37;;;10.70;1.00;;;;;;5333305;26;20810;-72
2024/04/18 11:06:30;;;;;;;6.20;5.27;;;10.90;1.00;;;;;;5336525;26;20517;-72
2024/04/18 11:08:55;;;;;;;7.07;4.60;;;11.00;1.00;;;;;;5336105;26;20444;-73
2024/04/18 11:11:26;;;;;;;6.30;4.47;;;11.30;1.00;;;;;;5337353;26;20226;-72
2024/04/18 11:13:59;;;;;;;4.20;3.67;;;10.90;1.00;;;;;;5335510;26;20637;-72
2024/04/18 11:16:25;;;;;;;5.70;4.30;;;11.10;1.00;;;;;;5335638;26;20457;-71
2024/04/18 11:18:54;;;;;;;5.00;4.13;;;11.80;1.00;;;;;;5334089;26;20526;-72
2024/04/18 11:21:19;;;;;;;4.30;3.90;;;12.70;1.00;;;;;;5335798;26;20497;-72
2024/04/18 11:23:50;;;;;;;4.50;4.03;;;12.70;1.00;;;;;;5335507;26;20488;-72
2024/04/18 11:26:36;;;;;;;4.60;3.67;;;12.70;1.00;;;;;;5335946;26;20264;-72
2024/04/18 11:29:02;;;;;;;3.80;3.40;;;12.50;1.00;;;;;;5335781;26;20552;-72
2024/04/18 11:31:27;;;;;;;3.60;2.60;;;12.10;1.00;;;;;;5335594;26;20461;-72
2024/04/18 11:33:55;;;;;;;2.83;2.03;;;11.30;1.00;;;;;;5335120;26;20246;-71
2024/04/18 11:36:20;;;;;;;3.17;2.00;;;10.20;1.00;;;;;;5335494;26;20252;-71
2024/04/18 11:38:47;;;;;;;2.60;1.87;;;9.20;1.00;;;;;;5362752;26;20456;-74
2024/04/18 11:41:12;;;;;;;6.43;2.30;;;8.40;1.00;;;;;;5335399;26;20229;-71
2024/04/18 11:43:38;;;;;;;3.00;1.20;;;8.30;1.00;;;;;;5335064;26;20475;-71
2024/04/18 11:46:03;;;;;;;2.67;1.30;;;8.20;1.00;;;;;;5335091;26;20677;-72
2024/04/18 11:48:29;;;;;;;2.50;1.50;;;8.00;1.00;;;;;;5333294;26;20382;-71
2024/04/18 11:50:54;;;;;;;2.67;1.10;;;8.40;1.00;;;;;;5335395;26;20232;-71
2024/04/18 11:53:20;;;;;;;1.90;1.00;;;8.80;1.00;;;;;;5362352;26;20275;-71
2024/04/18 11:55:45;;;;;;;2.30;1.40;;;9.10;1.00;;;;;;5333201;26;20240;-71
2024/04/18 11:58:11;;;;;;;3.50;2.50;;;9.00;1.00;;;;;;5335253;26;20227;-71
2024/04/18 12:00:36;;;;;;;2.33;1.60;;;8.90;1.00;;;;;;5335076;26;20342;-71
2024/04/18 12:03:02;;;;;;;3.50;1.63;;;8.30;1.00;;;;;;5362107;26;20244;-71
2024/04/18 12:05:27;;;;;;;4.30;2.63;;;8.30;1.00;;;;;;5334762;26;20316;-71
2024/04/18 12:07:53;;;;;;;7.83;2.00;;;8.20;1.00;;;;;;5333626;26;20662;-72
2024/04/18 12:10:19;;;;;;;2.57;1.77;;;8.10;1.00;;;;;;5335069;26;20628;-72
2024/04/18 12:12:45;;;;;;;3.43;2.30;;;8.20;1.00;;;;;;5334848;26;20384;-72
2024/04/18 12:15:10;;;;;;;3.67;2.57;;;8.40;1.00;;;;;;5332701;26;20482;-72
2024/04/18 12:17:36;;;;;;;3.10;2.10;;;8.50;1.00;;;;;;5335612;26;20309;-72
2024/04/18 12:20:02;;;;;;;3.20;2.10;;;8.70;1.00;;;;;;5334150;26;20232;-72
2024/04/18 12:22:28;;;;;;;3.13;2.17;;;8.60;1.00;;;;;;5333994;26;21071;-72
2024/04/18 12:24:53;;;;;;;3.40;1.53;;;8.60;1.00;;;;;;5333786;26;20466;-72
2024/04/18 12:27:19;;;;;;;3.60;2.10;;;8.70;1.00;;;;;;5334945;26;20622;-72
2024/04/18 12:29:46;;;;;;;2.93;2.00;;;9.10;1.00;;;;;;5334704;26;20286;-71
2024/04/18 12:32:13;;;;;;;7.73;2.23;;;9.40;1.00;;;;;;5361607;26;20236;-72
2024/04/18 12:34:38;;;;;;;3.77;2.17;;;9.90;1.00;;;;;;5334304;26;20944;-72
2024/04/18 12:37:04;;;;;;;4.10;2.80;;;10.10;1.00;;;;;;5334735;26;20460;-72
2024/04/18 12:39:30;;;;;;;3.23;2.90;;;10.70;1.00;;;;;;5362044;26;20233;-72
2024/04/18 12:41:56;;;;;;;3.03;2.40;;;11.60;1.00;;;;;;5334786;26;20264;-72
2024/04/18 12:44:21;;;;;;;2.83;2.07;;;12.00;1.00;;;;;;5334189;26;20234;-72
2024/04/18 12:46:47;;;;;;;3.50;2.23;;;12.20;1.00;;;;;;5334575;26;20512;-72
2024/04/18 12:49:13;;;;;;;2.90;1.93;;;12.80;1.00;;;;;;5334572;26;20225;-72
2024/04/18 12:51:38;;;;;;;3.10;2.40;;;13.20;1.00;;;;;;5334533;26;20226;-72
2024/04/18 12:54:04;;;;;;;3.10;2.53;;;13.00;1.00;;;;;;5332558;26;20289;-71
2024/04/18 12:56:29;;;;;;;3.73;2.97;;;12.30;1.00;;;;;;5361762;26;20338;-72
2024/04/18 12:58:55;;;;;;;3.20;2.37;;;11.70;1.00;;;;;;5334515;26;20264;-71
2024/04/18 13:01:20;;;;;;;3.20;2.43;;;11.80;1.00;;;;;;5334130;26;20333;-72